Time;durP1;ratioP1;P1;durP2;ratioP2;P2;SDS_P1;SDS_P2;PMS_P1;PMS_P2;Temp;Humidity;BMP_temperature;BMP_pressure;BME280_temperature;BME280_humidity;BME280_pressure;Samples;Min_cycle;Max_cycle;Signal;HPM_P1;HPM_P2
2022/06/22 00:00:36;;;;;;;;;4.00;2.00;;;;;26.07;28.47;98998.56;5072574;28;8875;-80
2022/06/22 00:03:10;;;;;;;;;5.20;5.20;;;;;26.04;28.75;99002.28;5123672;27;8836;-79
2022/06/22 00:05:44;;;;;;;;;4.00;4.00;;;;;25.99;28.53;99016.94;5089461;28;8852;-79
2022/06/22 00:08:17;;;;;;;;;5.40;4.00;;;;;26.05;28.51;99028.06;5071132;28;8846;-79
2022/06/22 00:10:53;;;;;;;;;3.40;3.40;;;;;26.02;28.53;99038.94;5071323;28;8841;-79
2022/06/22 00:13:25;;;;;;;;;0.20;0.20;;;;;25.99;29.11;99027.63;5105080;28;8861;-78
2022/06/22 00:16:00;;;;;;;;;3.80;3.80;;;;;26.04;29.06;99025.50;5076844;28;8988;-79
2022/06/22 00:18:34;;;;;;;;;5.00;5.00;;;;;26.09;28.97;99028.69;5099138;28;9019;-80
2022/06/22 00:21:06;;;;;;;;;4.80;4.00;;;;;25.93;28.73;99036.94;5082327;28;8853;-80
2022/06/22 00:23:38;;;;;;;;;4.00;4.00;;;;;25.98;29.09;99026.78;5095893;28;8949;-80
2022/06/22 00:26:17;;;;;;;;;5.00;4.00;;;;;25.91;28.69;99022.81;5073015;28;8876;-81
2022/06/22 00:28:59;;;;;;;;;5.00;5.00;;;;;25.77;28.43;99018.47;5069826;28;8877;-78
2022/06/22 00:31:37;;;;;;;;;2.40;2.40;;;;;25.78;28.66;99009.47;5053865;28;8961;-79
2022/06/22 00:34:17;;;;;;;;;3.60;3.60;;;;;25.80;28.10;98988.88;5068703;28;8900;-78
2022/06/22 00:36:49;;;;;;;;;3.60;3.60;;;;;25.90;27.71;99002.44;5069361;28;8865;-78
2022/06/22 00:39:23;;;;;;;;;3.80;3.80;;;;;25.89;27.96;99024.75;5052275;28;8917;-79
2022/06/22 00:41:58;;;;;;;;;3.60;3.60;;;;;25.91;27.71;99029.97;5069193;28;8857;-80
2022/06/22 00:44:30;;;;;;;;;3.60;2.80;;;;;25.73;27.50;99024.13;5036571;28;9617;-79
2022/06/22 00:47:04;;;;;;;;;3.40;2.40;;;;;25.73;27.57;99022.34;5102485;28;9605;-79
2022/06/22 00:49:36;;;;;;;;;4.00;4.00;;;;;25.81;27.61;99027.13;5105334;28;8869;-80
2022/06/22 00:52:08;;;;;;;;;3.60;3.60;;;;;25.71;27.20;99026.94;5101063;28;8994;-80
2022/06/22 00:54:39;;;;;;;;;4.00;4.00;;;;;25.78;27.51;99012.16;5098192;28;8851;-79
2022/06/22 00:57:12;;;;;;;;;5.20;5.20;;;;;25.84;27.40;98994.84;5074155;28;9034;-80
2022/06/22 00:59:47;;;;;;;;;6.00;4.40;;;;;25.74;27.31;98997.31;5036764;28;8854;-79
2022/06/22 01:02:37;;;;;;;;;4.40;4.40;;;;;25.58;27.27;98991.41;5067080;28;8846;-79
2022/06/22 01:05:17;;;;;;;;;6.00;5.00;;;;;25.61;27.33;98991.16;5082912;28;8858;-79
2022/06/22 01:07:51;;;;;;;;;5.00;3.80;;;;;25.62;27.68;98998.22;5073718;28;8979;-80
2022/06/22 01:10:26;;;;;;;;;3.00;3.00;;;;;25.55;27.67;99010.28;5067151;28;8843;-80
2022/06/22 01:12:59;;;;;;;;;3.20;3.00;;;;;25.52;27.87;99021.19;5035934;28;8919;-80
2022/06/22 01:15:35;;;;;;;;;4.00;4.00;;;;;25.25;28.04;99006.16;5080443;28;8867;-79
2022/06/22 01:18:09;;;;;;;;;2.00;2.00;;;;;25.32;28.17;99006.59;5090516;28;8884;-79
2022/06/22 01:20:52;;;;;;;;;3.00;3.00;;;;;25.29;27.94;99008.50;5095452;28;8842;-78
2022/06/22 01:23:46;;;;;;;;;3.60;3.40;;;;;25.12;28.17;99015.94;5069831;28;10036;-79
2022/06/22 01:26:34;;;;;;;;;3.00;3.00;;;;;25.18;28.22;99020.84;5069865;28;8878;-79
2022/06/22 01:29:13;;;;;;;;;6.00;3.00;;;;;25.26;28.22;99007.88;5049134;28;8839;-79
2022/06/22 01:31:50;;;;;;;;;3.00;3.00;;;;;25.26;27.95;99013.22;5067739;28;8862;-80
2022/06/22 01:34:20;;;;;;;;;3.80;3.80;;;;;25.29;28.33;99005.84;5014070;28;8890;-79
2022/06/22 01:36:48;;;;;;;;;3.00;3.00;;;;;25.33;28.01;99000.25;5067366;28;8911;-78
2022/06/22 01:39:17;;;;;;;;;2.60;2.60;;;;;25.36;28.32;98995.56;5067492;28;8962;-81
2022/06/22 01:41:51;;;;;;;;;3.00;3.00;;;;;25.35;28.15;98999.22;5067492;28;8862;-79
2022/06/22 01:44:26;;;;;;;;;4.00;4.00;;;;;25.34;28.24;98996.66;5065912;28;8877;-81
2022/06/22 01:47:22;;;;;;;;;4.00;4.00;;;;;25.31;27.98;98986.19;5067061;28;8873;-79
2022/06/22 01:49:59;;;;;;;;;5.80;4.20;;;;;25.36;28.17;98982.22;5084446;28;8926;-80
2022/06/22 01:52:59;;;;;;;;;4.60;4.40;;;;;25.40;27.94;98989.03;5088493;28;8984;-78
2022/06/22 01:55:39;;;;;;;;;3.40;3.40;;;;;25.39;27.88;98991.84;5086424;28;8832;-79
2022/06/22 01:58:31;;;;;;;;;2.80;2.80;;;;;25.42;27.99;98981.78;5088637;28;8950;-79
2022/06/22 02:01:11;;;;;;;;;4.00;4.00;;;;;25.31;27.72;98978.16;5069051;28;8850;-79
2022/06/22 02:03:46;;;;;;;;;3.00;3.00;;;;;25.34;27.82;98986.81;5049861;28;8951;-78
2022/06/22 02:09:15;;;;;;;;;2.20;2.20;;;;;25.39;28.14;98997.19;5050344;28;8876;-80
2022/06/22 02:12:18;;;;;;;;;3.60;3.60;;;;;25.39;27.94;99000.72;5067233;28;8866;-81
2022/06/22 02:14:43;;;;;;;;;4.60;4.40;;;;;25.41;27.73;98987.25;5087332;28;8839;-79
2022/06/22 02:17:18;;;;;;;;;3.20;3.20;;;;;25.43;27.97;98966.63;5089392;28;8880;-80
2022/06/22 02:20:29;;;;;;;;;2.80;2.80;;;;;25.46;28.19;98977.09;5087969;28;8962;-80
2022/06/22 02:23:07;;;;;;;;;4.20;3.80;;;;;25.41;28.20;98980.09;5067880;28;8877;-78
2022/06/22 02:25:43;;;;;;;;;4.00;4.00;;;;;25.39;28.25;98983.84;5083965;28;8854;-79
2022/06/22 02:28:12;;;;;;;;;4.00;4.00;;;;;25.32;28.08;98985.22;5068529;28;8969;-80
2022/06/22 02:30:43;;;;;;;;;3.60;3.60;;;;;25.27;28.40;98988.22;5058116;28;9710;-80
2022/06/22 02:33:14;;;;;;;;;5.00;5.00;;;;;25.22;28.22;98996.53;5067402;28;8877;-81
2022/06/22 02:35:44;;;;;;;;;2.40;2.40;;;;;25.02;28.38;98997.03;5045836;28;8972;-79
2022/06/22 02:38:16;;;;;;;;;4.40;4.40;;;;;24.91;28.67;99000.44;5029487;28;9032;-81
2022/06/22 02:46:25;;;;;;;;;4.20;4.00;;;;;24.64;28.58;99014.69;5041149;28;8824;-80
2022/06/22 02:49:00;;;;;;;;;4.80;3.60;;;;;24.50;28.89;99012.09;5052902;28;8889;-80
2022/06/22 02:51:34;;;;;;;;;3.20;3.20;;;;;24.45;28.82;98990.19;5069653;28;8884;-78
2022/06/22 02:54:08;;;;;;;;;5.20;5.20;;;;;24.27;28.92;98990.47;5086204;28;8844;-80
2022/06/22 02:56:41;;;;;;;;;4.60;3.00;;;;;24.19;29.46;98994.59;5086861;28;8864;-77
2022/06/22 02:59:12;;;;;;;;;3.20;3.20;;;;;24.22;29.44;98992.59;5053046;28;8875;-80
2022/06/22 03:01:41;;;;;;;;;3.00;3.00;;;;;24.20;29.65;98999.81;5049772;28;8862;-79
2022/06/22 03:04:15;;;;;;;;;4.00;4.00;;;;;24.15;29.58;99007.25;5049896;28;8875;-78
2022/06/22 03:06:48;;;;;;;;;3.60;3.40;;;;;23.95;29.83;98992.59;5062118;28;8840;-78
2022/06/22 03:09:18;;;;;;;;;6.00;5.00;;;;;23.98;30.13;98991.53;5099412;28;9523;-72
2022/06/22 03:11:52;;;;;;;;;5.20;4.00;;;;;23.92;29.91;98987.44;5068784;28;8846;-80
2022/06/22 03:14:25;;;;;;;;;3.00;3.00;;;;;23.79;30.15;98994.50;5069462;28;8882;-79
2022/06/22 03:16:58;;;;;;;;;5.20;5.20;;;;;23.79;30.23;98989.19;5069767;28;8975;-79
2022/06/22 03:19:34;;;;;;;;;4.60;4.60;;;;;23.79;30.24;99002.50;5055052;28;9659;-82
2022/06/22 03:22:16;;;;;;;;;5.40;5.20;;;;;23.69;30.80;99000.38;5070397;28;8846;-82
2022/06/22 03:24:52;;;;;;;;;5.00;5.00;;;;;23.76;30.54;98979.53;5052520;28;8881;-84
2022/06/22 03:27:30;;;;;;;;;5.00;5.00;;;;;23.75;30.58;98986.69;5084992;28;8847;-80
2022/06/22 03:30:02;;;;;;;;;4.00;4.00;;;;;23.81;30.49;98989.94;5054379;28;8870;-78
2022/06/22 03:32:35;;;;;;;;;6.20;5.00;;;;;23.83;30.56;98985.38;5086088;28;8836;-81
2022/06/22 03:35:11;;;;;;;;;5.00;4.20;;;;;23.83;30.69;98999.53;5070033;28;8838;-79
2022/06/22 03:37:46;;;;;;;;;6.40;6.40;;;;;23.81;30.80;99022.75;5084721;28;8949;-80
2022/06/22 03:40:20;;;;;;;;;7.40;7.40;;;;;23.78;30.88;99027.38;5087513;28;8853;-78
2022/06/22 03:42:52;;;;;;;;;3.60;3.60;;;;;23.70;30.72;99018.06;5087340;28;8830;-79
2022/06/22 03:45:27;;;;;;;;;4.00;4.00;;;;;23.77;30.98;99028.34;5046737;28;8877;-79
2022/06/22 03:48:01;;;;;;;;;4.00;4.00;;;;;23.89;30.98;99024.91;5049513;28;8874;-79
2022/06/22 03:50:37;;;;;;;;;4.60;4.40;;;;;24.00;30.91;99022.41;4980984;28;8947;-79
2022/06/22 03:53:14;;;;;;;;;4.60;4.60;;;;;24.08;30.66;99021.91;5046930;28;8882;-79
2022/06/22 03:55:47;;;;;;;;;4.80;4.80;;;;;23.98;30.95;99036.78;5029357;28;8874;-80
2022/06/22 03:58:20;;;;;;;;;4.40;4.40;;;;;23.82;30.60;99051.09;5029738;28;8874;-79
2022/06/22 04:00:49;;;;;;;;;4.00;4.00;;;;;23.95;30.88;99043.19;5046587;28;8958;-80
2022/06/22 04:03:19;;;;;;;;;5.00;5.00;;;;;24.06;30.83;99032.66;5029842;28;8935;-80
2022/06/22 04:05:53;;;;;;;;;6.80;6.80;;;;;24.11;30.84;99029.72;5045653;28;8896;-79
2022/06/22 04:08:25;;;;;;;;;5.00;5.00;;;;;24.21;30.94;99027.31;4999666;28;8944;-77
2022/06/22 04:10:59;;;;;;;;;5.60;5.60;;;;;24.23;30.85;99030.72;5033484;28;9002;-78
2022/06/22 04:13:35;;;;;;;;;4.60;4.60;;;;;24.32;30.67;99035.47;5025811;28;8946;-78
2022/06/22 04:16:10;;;;;;;;;5.20;5.20;;;;;24.36;30.33;99039.63;5038216;28;8862;-78
2022/06/22 04:18:45;;;;;;;;;5.20;5.20;;;;;24.29;30.43;99043.66;5033375;28;8858;-78
2022/06/22 04:21:27;;;;;;;;;5.60;5.60;;;;;24.40;30.30;99056.28;5065379;28;8853;-80
2022/06/22 04:24:00;;;;;;;;;4.60;4.60;;;;;24.43;30.74;99061.41;5082827;28;9593;-80
2022/06/22 04:26:33;;;;;;;;;4.80;4.80;;;;;23.99;30.70;99068.66;5072508;28;9024;-79
2022/06/22 04:29:15;;;;;;;;;8.00;8.00;;;;;23.57;31.31;99072.16;5068195;28;8915;-80
2022/06/22 04:31:53;;;;;;;;;4.40;4.40;;;;;23.37;32.01;99086.72;5087831;28;8864;-80
2022/06/22 04:34:32;;;;;;;;;4.00;4.00;;;;;23.66;31.79;99080.44;5071085;28;8850;-79
2022/06/22 04:37:07;;;;;;;;;4.80;4.80;;;;;23.85;31.44;99066.84;5092682;28;8852;-78
2022/06/22 04:39:42;;;;;;;;;7.00;5.60;;;;;24.09;31.28;99061.78;5062252;28;8930;-78
2022/06/22 04:42:11;;;;;;;;;6.00;5.00;;;;;24.29;30.97;99075.63;5069273;28;8988;-80
2022/06/22 04:44:45;;;;;;;;;5.60;5.60;;;;;24.48;30.62;99057.50;5072476;28;8846;-81
2022/06/22 04:47:18;;;;;;;;;7.80;6.40;;;;;24.42;30.48;99068.53;5069514;28;8871;-81
2022/06/22 04:49:52;;;;;;;;;6.00;6.00;;;;;23.89;31.00;99059.53;5067873;28;8839;-78
2022/06/22 04:52:28;;;;;;;;;12.00;10.40;;;;;23.86;31.46;99051.75;5083263;28;8880;-81
2022/06/22 04:55:00;;;;;;;;;7.00;7.00;;;;;24.05;31.12;99048.78;5083319;28;8836;-80
2022/06/22 04:57:33;;;;;;;;;4.20;3.80;;;;;24.10;30.53;99034.22;5067959;28;8849;-78
2022/06/22 05:00:07;;;;;;;;;7.00;7.00;;;;;24.17;30.26;99036.47;5067591;28;8858;-79
2022/06/22 05:02:40;;;;;;;;;43.75;37.75;;;;;24.15;30.46;99023.25;5068334;28;8947;-80
2022/06/22 05:05:20;;;;;;;;;6.00;6.00;;;;;23.46;31.54;99043.53;5034592;28;8853;-77
2022/06/22 05:07:54;;;;;;;;;5.00;5.00;;;;;22.96;32.08;99056.28;5035346;28;8985;-79
2022/06/22 05:10:29;;;;;;;;;7.40;7.40;;;;;22.62;33.02;99073.34;5068393;28;8874;-80
2022/06/22 05:13:01;;;;;;;;;9.40;7.20;;;;;22.45;33.65;99063.69;5051609;28;8846;-78
2022/06/22 05:15:34;;;;;;;;;8.40;8.40;;;;;22.27;34.98;99062.94;5002271;28;8842;-79
2022/06/22 05:18:10;;;;;;;;;8.80;8.80;;;;;22.23;35.46;99070.22;5081753;28;9010;-77
2022/06/22 05:20:47;;;;;;;;;6.60;6.60;;;;;21.77;36.50;99086.84;5082340;28;8852;-75
2022/06/22 05:23:20;;;;;;;;;6.00;5.00;;;;;21.42;36.91;99088.72;5051523;28;8971;-76
2022/06/22 05:25:54;;;;;;;;;8.00;7.00;;;;;21.34;37.68;99099.72;5044009;28;8842;-78
2022/06/22 05:28:34;;;;;;;;;21.60;21.40;;;;;21.41;37.66;99105.56;5043793;28;8896;-77
2022/06/22 05:31:06;;;;;;;;;7.40;7.40;;;;;21.58;37.27;99094.94;5026133;28;8842;-77
2022/06/22 05:33:39;;;;;;;;;8.00;6.40;;;;;21.36;37.81;99102.28;5048103;28;8970;-75
2022/06/22 05:36:12;;;;;;;;;6.00;5.20;;;;;21.19;36.62;99098.72;5049441;28;8848;-74
2022/06/22 05:38:46;;;;;;;;;7.00;5.40;;;;;21.16;36.39;99105.97;5051431;28;8985;-76
2022/06/22 05:41:21;;;;;;;;;6.20;6.20;;;;;21.34;36.51;99123.59;5069797;28;8848;-76
2022/06/22 05:43:50;;;;;;;;;7.00;7.00;;;;;21.56;36.38;99127.81;5069641;28;8958;-73
2022/06/22 05:46:19;;;;;;;;;6.60;6.60;;;;;21.90;35.98;99128.69;5067976;28;8836;-75
2022/06/22 05:48:50;;;;;;;;;10.80;8.40;;;;;22.17;35.71;99131.63;5046302;28;8862;-77
2022/06/22 05:51:30;;;;;;;;;7.20;7.20;;;;;22.12;35.77;99131.88;5053799;28;8860;-78
2022/06/22 05:54:06;;;;;;;;;1.80;1.80;;;;;21.93;35.96;99133.84;5048054;28;8855;-78
2022/06/22 05:56:41;;;;;;;;;6.00;6.00;;;;;21.61;36.59;99131.94;5058899;28;8839;-75
2022/06/22 05:59:21;;;;;;;;;6.20;6.20;;;;;21.60;37.13;99121.41;5084713;28;8901;-71
2022/06/22 06:01:58;;;;;;;;;7.00;6.80;;;;;21.69;37.15;99120.91;5087030;28;8936;-74
2022/06/22 06:04:33;;;;;;;;;7.80;7.60;;;;;21.56;37.53;99112.75;5084351;28;8871;-71
2022/06/22 06:07:08;;;;;;;;;9.00;8.00;;;;;21.81;37.43;99114.09;5012007;28;8869;-73
2022/06/22 06:09:38;;;;;;;;;9.80;8.80;;;;;21.70;37.52;99122.66;5047017;28;9034;-73
2022/06/22 06:12:15;;;;;;;;;7.60;6.80;;;;;22.10;36.59;99130.25;5034327;28;8886;-71
2022/06/22 06:14:47;;;;;;;;;7.00;7.00;;;;;22.44;36.16;99123.97;5032935;28;8858;-72
2022/06/22 06:17:24;;;;;;;;;7.20;7.20;;;;;22.77;35.41;99131.78;5035440;28;8848;-71
2022/06/22 06:19:56;;;;;;;;;7.00;7.00;;;;;23.11;35.58;99126.38;5026422;28;8914;-75
2022/06/22 06:22:28;;;;;;;;;8.60;8.00;;;;;22.94;35.84;99129.97;5041056;28;8845;-71
2022/06/22 06:27:55;;;;;;;;;6.60;6.60;;;;;21.95;37.89;99122.19;5026276;28;9665;-74
2022/06/22 06:30:29;;;;;;;;;7.60;7.00;;;;;22.06;37.42;99118.94;5000366;28;8892;-69
2022/06/22 06:33:05;;;;;;;;;6.20;6.20;;;;;21.86;38.15;99111.19;5035711;28;8868;-71
2022/06/22 06:35:38;;;;;;;;;14.80;12.20;;;;;21.71;38.38;99118.19;5040685;28;8860;-71
2022/06/22 06:38:16;;;;;;;;;10.20;8.80;;;;;21.46;39.03;99124.78;5025973;28;8860;-67
2022/06/22 06:40:53;;;;;;;;;6.60;6.60;;;;;21.58;38.75;99112.66;5027001;28;8982;-68
2022/06/22 06:43:31;;;;;;;;;8.80;6.80;;;;;21.77;38.02;99121.34;5026725;28;8863;-73
2022/06/22 06:46:01;;;;;;;;;7.00;7.00;;;;;22.30;37.18;99108.78;5039360;28;8919;-68
2022/06/22 06:48:33;;;;;;;;;6.80;6.80;;;;;22.76;37.01;99108.84;5026303;28;8887;-71
2022/06/22 06:51:05;;;;;;;;;6.80;6.80;;;;;23.20;36.19;99107.19;5026655;28;8844;-70
2022/06/22 06:53:45;;;;;;;;;8.00;5.60;;;;;23.49;35.62;99101.91;5065319;28;8853;-71
2022/06/22 06:56:20;;;;;;;;;7.00;6.00;;;;;23.60;34.91;99083.50;5033617;28;8891;-71
2022/06/22 06:58:52;;;;;;;;;10.80;9.80;;;;;23.86;34.66;99067.75;5025816;28;8911;-74
2022/06/22 07:01:27;;;;;;;;;11.20;10.60;;;;;24.08;33.95;99060.09;5046268;28;8833;-71
2022/06/22 07:04:00;;;;;;;;;8.80;8.80;;;;;23.85;34.22;99074.00;5040884;28;8860;-70
2022/06/22 07:06:29;;;;;;;;;6.40;6.40;;;;;23.85;33.97;99066.84;5059251;28;8913;-69
2022/06/22 07:09:03;;;;;;;;;7.60;7.60;;;;;23.94;33.51;99060.09;5082232;28;8875;-72
2022/06/22 07:11:41;;;;;;;;;5.80;5.80;;;;;23.04;35.31;99088.63;5087279;28;8851;-73
2022/06/22 07:14:16;;;;;;;;;6.20;5.80;;;;;22.48;36.61;99093.59;5066587;28;8900;-79
2022/06/22 07:16:45;;;;;;;;;7.40;7.40;;;;;22.47;37.25;99097.19;5095752;28;8850;-72
2022/06/22 07:19:18;;;;;;;;;6.40;6.00;;;;;22.49;37.08;99105.09;5075683;28;8869;-75
2022/06/22 07:21:52;;;;;;;;;5.40;5.40;;;;;22.49;35.80;99108.59;5084828;28;8949;-74
2022/06/22 07:24:27;;;;;;;;;6.00;5.20;;;;;22.31;37.37;99117.63;5069613;28;8894;-75
2022/06/22 07:27:02;;;;;;;;;7.00;7.00;;;;;22.38;36.50;99119.84;5084752;28;9451;-76
2022/06/22 07:29:40;;;;;;;;;7.40;7.40;;;;;22.40;36.24;99143.69;5102630;27;8861;-74
2022/06/22 07:32:18;;;;;;;;;7.60;7.60;;;;;22.25;35.37;99153.34;5088316;28;8847;-77
2022/06/22 07:34:56;;;;;;;;;5.40;5.40;;;;;22.24;35.46;99146.28;5086535;28;8879;-73
2022/06/22 07:37:29;;;;;;;;;7.60;7.60;;;;;22.11;36.01;99143.44;5087526;28;8843;-77
2022/06/22 07:40:06;;;;;;;;;9.60;7.60;;;;;22.05;34.49;99141.13;5089942;28;8864;-75
2022/06/22 07:42:36;;;;;;;;;7.80;7.00;;;;;21.87;35.22;99148.28;5068631;28;8900;-74
2022/06/22 07:45:05;;;;;;;;;4.60;4.60;;;;;21.76;35.64;99146.19;5078336;28;9044;-75
2022/06/22 07:47:38;;;;;;;;;12.20;12.00;;;;;21.83;35.66;99151.16;5087825;28;8896;-74
2022/06/22 07:50:14;;;;;;;;;8.00;8.00;;;;;21.88;35.87;99155.28;5072026;28;8850;-77
2022/06/22 07:52:50;;;;;;;;;7.00;7.00;;;;;21.86;36.82;99143.91;5070080;28;8846;-73
2022/06/22 07:55:36;;;;;;;;;6.60;6.20;;;;;21.59;37.87;99151.53;5070186;28;8822;-74
2022/06/22 07:58:27;;;;;;;;;8.20;7.20;;;;;21.92;37.62;99140.91;5077996;28;8850;-78
2022/06/22 08:01:03;;;;;;;;;7.80;7.40;;;;;22.09;37.38;99155.94;5085237;28;8843;-81
2022/06/22 08:03:36;;;;;;;;;16.80;15.80;;;;;22.18;37.48;99151.94;5090329;28;8859;-82
2022/06/22 08:06:09;;;;;;;;;11.00;11.00;;;;;22.53;36.35;99150.03;5073119;28;8890;-79
2022/06/22 08:08:44;;;;;;;;;10.00;9.60;;;;;22.83;35.68;99149.19;5087665;28;8874;-81
2022/06/22 08:11:22;;;;;;;;;8.60;8.60;;;;;22.92;36.03;99161.13;5081436;28;8868;-81
2022/06/22 08:13:56;;;;;;;;;9.20;8.80;;;;;22.95;36.73;99161.81;5072568;28;8945;-84
2022/06/22 08:16:30;;;;;;;;;10.00;8.80;;;;;23.28;36.52;99167.94;5089005;28;8853;-87
2022/06/22 08:19:01;;;;;;;;;5.60;5.60;;;;;23.47;35.41;99165.03;5071464;28;8838;-84
2022/06/22 08:21:31;;;;;;;;;5.80;4.80;;;;;23.98;34.19;99151.34;5053688;28;8837;-82
2022/06/22 08:24:01;;;;;;;;;6.20;6.00;;;;;24.39;34.16;99156.72;5072738;28;8888;-80
2022/06/22 08:26:33;;;;;;;;;7.00;6.00;;;;;24.56;33.13;99158.31;4993682;28;8862;-81
2022/06/22 08:29:04;;;;;;;;;6.00;6.00;;;;;24.52;33.86;99151.50;5008786;28;9080;-81
2022/06/22 08:31:39;;;;;;;;;8.20;7.00;;;;;24.93;33.55;99160.41;4976231;28;8989;-83
2022/06/22 08:34:33;;;;;;;;;8.20;6.00;;;;;25.28;32.63;99155.41;5005295;28;8948;-81
2022/06/22 08:37:07;;;;;;;;;7.20;6.20;;;;;25.66;31.98;99163.44;4994454;28;9634;-79
2022/06/22 08:39:42;;;;;;;;;8.00;7.20;;;;;25.90;31.84;99164.53;4989076;28;9054;-82
2022/06/22 08:42:22;;;;;;;;;6.80;6.80;;;;;26.15;31.12;99153.00;4992250;28;8850;-78
2022/06/22 08:45:06;;;;;;;;;7.20;7.20;;;;;26.39;30.11;99147.69;5022181;28;9588;-80
2022/06/22 08:48:01;;;;;;;;;6.00;6.00;;;;;26.63;30.02;99145.09;5069293;28;8850;-82
2022/06/22 08:50:46;;;;;;;;;5.80;5.80;;;;;26.67;28.30;99143.88;5019123;28;9055;-86
2022/06/22 08:53:43;;;;;;;;;6.40;6.40;;;;;26.84;28.32;99132.81;5030845;28;8853;-81
2022/06/22 08:56:29;;;;;;;;;4.80;4.80;;;;;27.02;27.45;99154.66;4904420;28;9025;-79
2022/06/22 08:59:21;;;;;;;;;5.60;5.00;;;;;27.28;26.65;99153.66;4948451;28;8881;-81
2022/06/22 09:02:08;;;;;;;;;5.00;5.00;;;;;27.42;26.16;99158.84;4937769;28;8887;-80
2022/06/22 09:05:09;;;;;;;;;5.00;4.40;;;;;27.64;26.08;99155.38;4951872;28;9071;-81
2022/06/22 09:08:10;;;;;;;;;5.20;5.20;;;;;27.78;25.09;99148.91;4952531;28;8876;-80
2022/06/22 09:10:52;;;;;;;;;6.00;6.00;;;;;27.84;25.04;99143.06;4912057;29;8950;-82
2022/06/22 09:13:42;;;;;;;;;6.20;6.20;;;;;27.87;24.53;99148.19;4879323;29;8986;-80
2022/06/22 09:16:27;;;;;;;;;5.00;5.00;;;;;27.78;25.14;99146.22;4893544;29;8897;-82
2022/06/22 09:19:28;;;;;;;;;6.60;6.60;;;;;27.15;24.97;99141.19;4895051;29;8875;-80
2022/06/22 09:22:08;;;;;;;;;3.60;3.00;;;;;26.77;25.61;99144.09;4913133;29;8876;-82
2022/06/22 09:24:42;;;;;;;;;6.00;6.00;;;;;26.42;26.42;99144.81;4928834;29;8868;-76
2022/06/22 09:27:17;;;;;;;;;7.00;6.20;;;;;26.71;26.04;99147.19;4932566;28;9040;-75
2022/06/22 09:30:06;;;;;;;;;5.80;5.80;;;;;27.05;25.90;99156.22;4942625;28;8900;-76
2022/06/22 09:33:08;;;;;;;;;1.60;1.60;;;;;27.26;25.58;99158.28;4918172;28;9034;-77
2022/06/22 09:36:20;;;;;;;;;5.60;5.60;;;;;27.53;25.43;99161.53;4964435;28;8898;-76
2022/06/22 09:39:12;;;;;;;;;7.00;5.20;;;;;27.78;25.36;99159.63;4984196;28;8874;-77
2022/06/22 09:42:01;;;;;;;;;5.20;5.20;;;;;27.98;24.78;99172.34;4989649;28;8903;-75
2022/06/22 09:44:56;;;;;;;;;5.20;4.20;;;;;28.29;24.79;99169.06;5024581;28;8932;-76
2022/06/22 09:47:45;;;;;;;;;4.80;4.80;;;;;28.49;24.69;99164.78;5062202;28;8958;-76
2022/06/22 09:50:48;;;;;;;;;4.80;4.80;;;;;28.56;23.98;99160.63;5085123;28;8859;-76
2022/06/22 09:53:38;;;;;;;;;4.00;4.00;;;;;28.52;23.18;99167.22;5100946;28;8868;-75
2022/06/22 09:56:33;;;;;;;;;4.80;4.60;;;;;28.68;23.81;99174.91;5082175;28;8854;-74
2022/06/22 09:59:34;;;;;;;;;6.00;6.00;;;;;28.85;24.15;99166.31;5083992;28;8860;-72
2022/06/22 10:02:23;;;;;;;;;4.00;4.00;;;;;29.05;23.56;99164.63;5088025;28;8905;-72
2022/06/22 10:05:34;;;;;;;;;5.00;5.00;;;;;29.08;23.06;99150.13;5080095;28;8852;-71
2022/06/22 10:08:22;;;;;;;;;3.60;3.40;;;;;29.05;22.39;99145.84;5034463;28;8955;-72
2022/06/22 10:11:01;;;;;;;;;6.40;6.40;;;;;29.04;23.01;99140.63;5029907;28;8978;-76
2022/06/22 10:13:48;;;;;;;;;4.60;4.60;;;;;28.97;22.73;99146.47;5008947;28;8971;-77
2022/06/22 10:16:38;;;;;;;;;8.00;7.80;;;;;28.90;23.09;99144.44;4983233;28;8874;-79
2022/06/22 10:19:30;;;;;;;;;5.40;5.40;;;;;28.86;23.58;99138.47;5030384;28;8858;-80
2022/06/22 10:22:14;;;;;;;;;6.20;6.20;;;;;28.97;22.79;99137.59;5028576;28;9043;-80
2022/06/22 10:25:20;;;;;;;;;5.20;5.20;;;;;29.02;22.50;99137.19;5008191;28;8977;-78
2022/06/22 10:28:13;;;;;;;;;5.00;5.00;;;;;29.16;23.55;99137.78;5006963;28;8977;-74
2022/06/22 10:30:50;;;;;;;;;7.80;7.80;;;;;29.30;23.58;99138.44;4978578;28;8846;-80
2022/06/22 10:33:33;;;;;;;;;5.00;5.00;;;;;29.36;22.35;99137.94;5044328;28;8842;-76
2022/06/22 10:36:38;;;;;;;;;6.00;6.00;;;;;29.53;22.17;99133.81;5044066;28;8869;-82
2022/06/22 10:39:23;;;;;;;;;3.60;3.40;;;;;29.57;21.41;99139.75;5044773;28;8888;-78
2022/06/22 10:45:15;;;;;;;;;5.00;5.00;;;;;28.68;22.05;99140.03;5048609;28;8967;-76
2022/06/22 10:48:19;;;;;;;;;4.00;4.00;;;;;29.02;22.37;99135.38;5065934;28;9576;-77
2022/06/22 10:51:00;;;;;;;;;6.00;6.00;;;;;29.12;21.61;99144.34;4985406;28;8983;-78
2022/06/22 10:54:01;;;;;;;;;6.00;6.00;;;;;29.00;21.04;99134.66;4969605;28;8864;-78
2022/06/22 10:56:59;;;;;;;;;2.80;2.80;;;;;27.81;22.26;99137.97;4990017;28;8880;-78
2022/06/22 11:00:02;;;;;;;;;5.00;5.00;;;;;26.94;23.94;99129.44;4954455;28;8840;-76
2022/06/22 11:03:16;;;;;;;;;3.20;3.20;;;;;26.95;24.23;99131.13;4969817;28;9647;-81
2022/06/22 11:06:23;;;;;;;;;5.60;5.00;;;;;27.44;23.93;99124.75;4966835;28;8876;-79
2022/06/22 11:09:11;;;;;;;;;3.00;3.00;;;;;26.83;22.96;99124.88;4912475;29;9009;-76
2022/06/22 11:12:09;;;;;;;;;3.40;3.00;;;;;26.76;22.72;99120.97;4912890;29;8879;-79
2022/06/22 11:15:10;;;;;;;;;4.00;4.00;;;;;26.66;21.83;99111.91;4909592;29;8901;-77
2022/06/22 11:18:18;;;;;;;;;0.00;0.00;;;;;27.06;20.94;99109.78;4769734;29;8879;-80
2022/06/22 11:21:02;;;;;;;;;3.00;2.80;;;;;27.61;21.87;99107.38;4801621;29;8877;-72
2022/06/22 11:23:47;;;;;;;;;2.80;2.80;;;;;28.14;22.31;99094.22;4796021;29;8955;-67
2022/06/22 11:32:53;;;;;;;;;4.00;3.40;;;;;28.89;22.08;99099.81;4808115;29;9027;-68
2022/06/22 11:35:52;;;;;;;;;4.60;4.60;;;;;29.14;22.85;99085.19;4782259;29;8948;-68
2022/06/22 11:38:47;;;;;;;;;6.80;6.80;;;;;28.67;22.95;99087.31;4729442;30;8919;-70
2022/06/22 11:41:30;;;;;;;;;5.00;5.00;;;;;28.98;23.71;99080.25;4714295;30;8886;-72
2022/06/22 11:44:17;;;;;;;;;5.20;5.20;;;;;29.41;22.30;99083.78;4712084;30;8921;-72
2022/06/22 11:46:49;;;;;;;;;6.00;6.00;;;;;28.31;23.88;99095.53;4811935;29;8873;-72
2022/06/22 11:49:40;;;;;;;;;8.20;7.40;;;;;28.08;24.55;99092.06;4818863;29;8897;-68
2022/06/22 11:52:42;;;;;;;;;8.80;8.00;;;;;27.75;24.59;99098.22;4819015;29;8858;-67
2022/06/22 11:55:20;;;;;;;;;6.80;6.00;;;;;27.62;24.44;99095.69;4901518;28;8854;-69
2022/06/22 11:58:18;;;;;;;;;5.20;5.20;;;;;27.90;23.72;99091.72;4949595;28;8952;-71
2022/06/22 12:01:08;;;;;;;;;5.60;5.60;;;;;28.27;23.74;99088.72;4933641;28;8871;-68
2022/06/22 12:04:09;;;;;;;;;7.40;7.40;;;;;28.95;22.83;99089.38;4949711;28;8834;-69
2022/06/22 12:06:59;;;;;;;;;5.80;5.80;;;;;29.71;22.55;99080.28;4984446;28;8900;-74
2022/06/22 12:09:45;;;;;;;;;6.40;6.40;;;;;30.01;21.14;99079.44;5008137;28;8858;-67
2022/06/22 12:12:36;;;;;;;;;6.40;6.40;;;;;29.39;21.51;99083.06;5007358;28;8881;-69
2022/06/22 12:15:20;;;;;;;;;5.60;5.60;;;;;30.10;21.28;99080.47;5054541;28;8835;-70
2022/06/22 12:18:02;;;;;;;;;3.80;3.80;;;;;31.07;21.04;99072.50;5077101;28;8838;-66
2022/06/22 12:20:44;;;;;;;;;5.80;5.80;;;;;31.95;20.19;99076.81;5088905;28;8853;-79
2022/06/22 12:23:26;;;;;;;;;3.80;3.80;;;;;32.92;19.24;99067.28;5051147;28;8882;-77
2022/06/22 12:26:22;;;;;;;;;5.80;5.80;;;;;33.68;19.01;99060.44;5070228;28;8865;-78
2022/06/22 12:29:26;;;;;;;;;7.00;7.00;;;;;32.31;19.81;99069.72;5069638;28;8890;-79
2022/06/22 12:31:59;;;;;;;;;8.20;8.00;;;;;31.82;20.74;99069.94;5087204;28;8959;-79
2022/06/22 12:34:46;;;;;;;;;6.80;6.80;;;;;31.73;20.63;99067.28;5087719;28;8871;-79
2022/06/22 12:37:19;;;;;;;;;11.20;11.20;;;;;32.09;20.56;99070.13;5071737;28;8852;-78
2022/06/22 12:39:55;;;;;;;;;10.20;10.20;;;;;32.96;19.75;99066.81;5087450;28;8852;-79
2022/06/22 12:43:00;;;;;;;;;7.00;6.60;;;;;33.82;19.85;99072.47;5088584;28;8840;-80
2022/06/22 12:45:50;;;;;;;;;6.40;6.00;;;;;34.75;19.15;99067.06;5029468;28;8836;-78
2022/06/22 12:48:33;;;;;;;;;7.20;7.20;;;;;35.38;17.71;99068.22;5014599;28;8889;-79
2022/06/22 12:51:23;;;;;;;;;7.80;7.80;;;;;32.69;20.05;99083.13;5029037;28;8864;-78
2022/06/22 12:53:59;;;;;;;;;7.40;7.40;;;;;31.56;21.29;99071.59;5011605;28;8875;-80
2022/06/22 12:56:32;;;;;;;;;7.40;7.40;;;;;31.64;21.54;99061.75;5024012;28;8920;-78
2022/06/22 12:59:07;;;;;;;;;7.20;7.20;;;;;32.93;20.60;99053.63;5023727;28;8867;-76
2022/06/22 13:01:38;;;;;;;;;6.80;6.80;;;;;34.17;19.40;99057.94;5009457;28;8892;-78